Time;durP1;ratioP1;P1;durP2;ratioP2;P2;SDS_P1;SDS_P2;PMS_P1;PMS_P2;Temp;Humidity;BMP_temperature;BMP_pressure;BME280_temperature;BME280_humidity;BME280_pressure;Samples;Min_cycle;Max_cycle;Signal;HPM_P1;HPM_P2
2022/02/15 00:02:26;;;;;;;6.00;0.90;;;27.20;96.70;;;;;;4983174;28;20034;-79
2022/02/15 00:04:53;;;;;;;3.58;1.17;;;27.10;96.50;;;;;;4983387;28;20085;-76
2022/02/15 00:07:21;;;;;;;9.52;1.95;;;27.10;96.40;;;;;;4979264;28;20034;-76
2022/02/15 00:09:48;;;;;;;8.73;0.93;;;27.10;96.70;;;;;;4978419;28;20026;-76
2022/02/15 00:12:15;;;;;;;8.02;1.10;;;27.60;96.70;;;;;;4979495;28;20636;-77
2022/02/15 00:14:43;;;;;;;4.05;1.33;;;28.70;95.30;;;;;;4989327;28;20034;-77
2022/02/15 00:17:10;;;;;;;6.65;1.98;;;29.20;93.90;;;;;;4980268;28;20488;-74
2022/02/15 00:19:37;;;;;;;6.70;1.70;;;29.90;93.80;;;;;;4965229;28;20488;-75
2022/02/15 00:22:05;;;;;;;9.90;1.88;;;30.50;93.30;;;;;;4979539;28;20559;-74
2022/02/15 00:24:32;;;;;;;10.68;1.98;;;30.80;92.50;;;;;;4979431;28;20487;-75
2022/02/15 00:26:59;;;;;;;5.10;0.95;;;30.50;92.30;;;;;;4976705;28;20034;-75
2022/02/15 00:29:28;;;;;;;2.55;1.05;;;30.00;92.70;;;;;;4978297;28;20474;-74
2022/02/15 00:31:55;;;;;;;4.15;0.90;;;29.60;92.70;;;;;;4981457;28;20505;-74
2022/02/15 00:34:23;;;;;;;6.35;1.35;;;29.30;93.20;;;;;;4977917;28;20382;-74
2022/02/15 00:36:50;;;;;;;5.63;1.63;;;29.70;93.20;;;;;;4979073;28;20037;-75
2022/02/15 00:39:17;;;;;;;5.70;1.02;;;30.30;93.30;;;;;;4978288;28;20030;-75
2022/02/15 00:41:45;;;;;;;6.47;1.05;;;30.60;92.30;;;;;;4983550;28;20035;-74
2022/02/15 00:44:12;;;;;;;6.10;1.02;;;29.90;91.70;;;;;;4979777;28;20076;-74
2022/02/15 00:46:39;;;;;;;4.55;1.17;;;29.20;92.50;;;;;;4977933;28;20584;-74
2022/02/15 00:49:07;;;;;;;13.02;1.88;;;28.80;92.70;;;;;;4978009;28;20030;-76
2022/02/15 00:51:34;;;;;;;5.18;1.08;;;28.50;93.00;;;;;;4980935;28;20031;-74
2022/02/15 00:54:01;;;;;;;3.72;1.02;;;28.50;93.30;;;;;;4977648;28;20037;-74
2022/02/15 00:56:29;;;;;;;5.65;1.20;;;29.00;92.80;;;;;;4979775;28;20109;-74
2022/02/15 00:58:57;;;;;;;2.40;0.55;;;29.00;93.20;;;;;;4978439;28;20111;-76
2022/02/15 01:01:24;;;;;;;5.43;1.35;;;29.70;92.80;;;;;;4980986;28;20046;-76
2022/02/15 01:03:51;;;;;;;6.90;1.25;;;30.00;92.10;;;;;;4980525;28;20081;-75
2022/02/15 01:09:41;;;;;;;5.00;0.93;;;29.20;92.30;;;;;;4980850;28;20519;-74
2022/02/15 01:12:10;;;;;;;4.40;0.90;;;28.90;93.10;;;;;;4975865;28;22467;-76
2022/02/15 01:14:38;;;;;;;3.00;0.57;;;29.40;92.30;;;;;;4979829;28;20418;-75
2022/02/15 01:17:06;;;;;;;4.10;0.82;;;29.80;92.30;;;;;;4979266;28;20109;-77
2022/02/15 01:19:34;;;;;;;3.75;0.75;;;30.20;92.60;;;;;;4976808;28;20034;-74
2022/02/15 01:22:02;;;;;;;6.43;0.90;;;29.80;91.90;;;;;;4965450;28;20027;-73
2022/02/15 01:24:29;;;;;;;5.20;1.20;;;29.50;92.20;;;;;;4978507;28;20026;-77
2022/02/15 01:26:57;;;;;;;3.65;1.17;;;29.30;92.30;;;;;;4983381;28;20043;-80
2022/02/15 01:29:24;;;;;;;3.92;0.57;;;29.30;92.10;;;;;;4981492;28;20029;-75
2022/02/15 01:31:52;;;;;;;6.88;0.98;;;29.20;92.80;;;;;;4985014;28;20113;-76
2022/02/15 01:34:20;;;;;;;5.55;1.30;;;29.50;92.80;;;;;;4975760;28;20394;-76
2022/02/15 01:36:48;;;;;;;3.72;1.35;;;30.30;92.20;;;;;;4988102;28;20490;-75
2022/02/15 01:39:15;;;;;;;6.28;1.08;;;30.40;91.30;;;;;;4979752;28;20042;-78
2022/02/15 01:41:44;;;;;;;2.88;0.50;;;30.40;90.80;;;;;;4982866;28;20026;-76
2022/02/15 01:44:11;;;;;;;6.72;1.30;;;30.10;91.50;;;;;;4987745;28;20026;-77
2022/02/15 01:46:39;;;;;;;4.03;0.80;;;30.20;90.90;;;;;;4986075;28;20045;-75
2022/02/15 01:49:08;;;;;;;5.47;1.05;;;30.20;91.40;;;;;;4985350;28;20030;-79
2022/02/15 01:51:35;;;;;;;3.60;0.98;;;30.00;91.50;;;;;;4981283;28;20592;-81
2022/02/15 01:54:02;;;;;;;5.47;1.35;;;29.90;90.60;;;;;;4966112;28;20046;-77
2022/02/15 01:56:30;;;;;;;7.15;1.60;;;29.90;92.10;;;;;;4985101;28;20031;-77
2022/02/15 01:58:58;;;;;;;5.13;0.80;;;30.00;91.60;;;;;;4982307;28;20626;-74
2022/02/15 02:01:26;;;;;;;4.70;0.77;;;30.00;91.80;;;;;;4985810;28;20390;-74
2022/02/15 02:03:53;;;;;;;3.28;0.70;;;29.90;92.10;;;;;;4984346;28;20485;-74
2022/02/15 02:06:20;;;;;;;3.83;0.90;;;29.80;91.50;;;;;;4980856;28;20351;-74
2022/02/15 02:08:48;;;;;;;4.38;0.70;;;30.20;91.80;;;;;;4989127;28;20558;-77
2022/02/15 02:11:16;;;;;;;3.10;1.67;;;30.90;92.00;;;;;;4980333;28;20041;-74
2022/02/15 02:13:44;;;;;;;3.53;1.02;;;31.30;89.60;;;;;;4980378;28;20030;-76
2022/02/15 02:16:12;;;;;;;3.58;0.80;;;31.10;89.90;;;;;;4964962;28;20022;-74
2022/02/15 02:18:39;;;;;;;5.18;1.17;;;30.70;89.50;;;;;;4984933;28;20121;-74
2022/02/15 02:21:07;;;;;;;5.68;0.88;;;30.50;90.50;;;;;;4967179;28;20820;-77
2022/02/15 02:23:35;;;;;;;3.15;0.88;;;30.30;90.20;;;;;;4982745;28;20380;-72
2022/02/15 02:26:02;;;;;;;3.22;1.08;;;30.10;90.20;;;;;;4981914;28;20096;-74
2022/02/15 02:28:32;;;;;;;2.83;0.82;;;29.80;91.30;;;;;;4983290;28;20022;-80
2022/02/15 02:30:59;;;;;;;5.90;0.85;;;29.60;91.20;;;;;;4966042;28;20034;-78
2022/02/15 02:33:26;;;;;;;4.28;1.05;;;29.70;90.90;;;;;;4981169;28;20044;-74
2022/02/15 02:36:00;;;;;;;4.18;0.60;;;29.50;90.50;;;;;;4974574;28;20034;-77
2022/02/15 02:38:30;;;;;;;2.85;0.63;;;29.50;90.90;;;;;;4977481;28;20390;-76
2022/02/15 02:40:57;;;;;;;3.55;0.82;;;30.10;91.40;;;;;;4984038;28;20333;-76
2022/02/15 02:43:28;;;;;;;10.32;1.33;;;30.50;90.90;;;;;;4982070;28;20024;-77
2022/02/15 02:45:55;;;;;;;1.55;0.70;;;31.00;90.50;;;;;;4982886;28;20120;-77
2022/02/15 02:48:23;;;;;;;5.68;0.93;;;30.90;90.10;;;;;;4969235;28;20018;-75
2022/02/15 02:50:50;;;;;;;3.58;0.77;;;30.70;90.60;;;;;;4985355;28;20093;-76
2022/02/15 02:53:18;;;;;;;4.00;1.20;;;30.50;90.00;;;;;;4987660;28;20528;-75
2022/02/15 02:55:45;;;;;;;2.03;0.50;;;30.50;90.60;;;;;;4983942;28;20047;-76
2022/02/15 02:58:13;;;;;;;4.95;0.85;;;30.60;90.10;;;;;;4964137;28;20047;-75
2022/02/15 03:00:41;;;;;;;5.45;0.85;;;30.70;90.80;;;;;;4976335;28;20095;-76
2022/02/15 03:03:08;;;;;;;7.45;1.23;;;30.90;90.80;;;;;;4979503;28;20030;-77
2022/02/15 03:05:36;;;;;;;3.38;0.98;;;30.90;91.00;;;;;;4980880;28;20034;-76
2022/02/15 03:08:04;;;;;;;5.88;0.85;;;30.80;90.40;;;;;;4982301;28;20062;-77
2022/02/15 03:10:31;;;;;;;3.63;0.65;;;30.70;89.20;;;;;;4986060;28;20027;-76
2022/02/15 03:12:58;;;;;;;5.25;0.60;;;30.50;89.00;;;;;;4986239;28;20026;-77
2022/02/15 03:15:26;;;;;;;6.90;1.30;;;30.20;88.40;;;;;;4983653;28;20026;-77
2022/02/15 03:17:53;;;;;;;3.58;1.27;;;29.90;90.30;;;;;;4983394;28;20483;-76
2022/02/15 03:20:20;;;;;;;3.50;0.68;;;30.20;91.10;;;;;;4987768;28;20030;-75
2022/02/15 03:22:48;;;;;;;4.93;0.70;;;30.60;90.60;;;;;;4986878;28;20048;-77
2022/02/15 03:25:15;;;;;;;3.60;0.60;;;31.30;90.20;;;;;;4980906;28;20041;-77
2022/02/15 03:27:42;;;;;;;4.75;0.70;;;31.90;89.60;;;;;;4980356;28;20038;-77
2022/02/15 03:30:10;;;;;;;4.50;0.80;;;32.40;88.00;;;;;;4978725;28;20031;-78
2022/02/15 03:32:39;;;;;;;6.78;0.70;;;32.80;90.10;;;;;;4984841;28;20026;-75
2022/02/15 03:35:07;;;;;;;3.90;0.95;;;33.50;89.20;;;;;;4986764;28;20023;-77
2022/02/15 03:37:34;;;;;;;3.30;0.70;;;33.80;84.90;;;;;;4980035;28;20029;-78
2022/02/15 03:40:02;;;;;;;6.93;1.20;;;34.10;87.10;;;;;;4978064;28;20543;-78
2022/02/15 03:45:15;;;;;;;3.05;0.47;;;34.80;84.40;;;;;;4982191;28;20401;-76
2022/02/15 03:47:43;;;;;;;4.40;0.60;;;35.10;82.20;;;;;;4976995;28;20046;-78
2022/02/15 03:50:11;;;;;;;3.53;1.27;;;35.40;85.50;;;;;;4985642;28;20116;-77
2022/02/15 03:52:39;;;;;;;4.03;1.42;;;35.10;80.90;;;;;;4983120;28;20059;-78
2022/02/15 03:55:07;;;;;;;2.28;1.15;;;34.20;84.70;;;;;;4982334;28;20046;-77
2022/02/15 03:57:35;;;;;;;4.30;0.80;;;33.80;81.50;;;;;;4981666;28;20018;-79
2022/02/15 04:00:07;;;;;;;4.68;0.80;;;33.50;80.90;;;;;;4980557;28;20040;-75
2022/02/15 04:02:34;;;;;;;3.35;1.13;;;33.00;81.20;;;;;;4966919;28;20042;-75
2022/02/15 04:05:02;;;;;;;3.50;0.95;;;32.50;80.80;;;;;;4984813;28;20057;-76
2022/02/15 04:07:29;;;;;;;5.43;1.05;;;32.00;82.30;;;;;;4981722;28;20039;-77
2022/02/15 04:09:56;;;;;;;4.00;1.50;;;31.70;83.60;;;;;;4989147;28;20034;-74
2022/02/15 04:12:24;;;;;;;3.47;0.70;;;31.40;84.10;;;;;;4980647;28;20109;-75
2022/02/15 04:14:51;;;;;;;3.00;0.50;;;31.10;84.70;;;;;;4981963;28;20038;-75
2022/02/15 04:17:18;;;;;;;2.83;0.60;;;31.00;85.70;;;;;;4983393;28;20027;-75
2022/02/15 04:19:46;;;;;;;2.42;0.95;;;31.00;86.40;;;;;;4981334;28;20105;-75
2022/02/15 04:22:13;;;;;;;4.78;0.95;;;31.10;85.40;;;;;;4986168;28;20101;-75
2022/02/15 04:24:40;;;;;;;3.03;0.90;;;31.20;85.90;;;;;;4981942;28;20121;-76
2022/02/15 04:27:10;;;;;;;3.58;0.80;;;31.00;83.80;;;;;;4984111;28;20495;-75
2022/02/15 04:29:37;;;;;;;3.40;0.50;;;31.20;85.60;;;;;;4979625;28;20089;-76
2022/02/15 04:32:05;;;;;;;3.28;0.70;;;32.00;85.40;;;;;;4985197;28;20563;-76
2022/02/15 04:34:32;;;;;;;4.80;0.82;;;32.60;82.90;;;;;;4985013;28;20050;-76
2022/02/15 04:36:59;;;;;;;4.13;0.82;;;32.70;81.90;;;;;;4985246;28;20101;-74
2022/02/15 04:39:27;;;;;;;4.80;0.90;;;32.80;82.30;;;;;;4971750;28;20034;-76
2022/02/15 04:41:54;;;;;;;4.57;0.80;;;33.10;82.40;;;;;;4979816;28;20042;-78
2022/02/15 04:44:21;;;;;;;5.60;1.38;;;33.40;82.20;;;;;;4984340;28;20025;-77
2022/02/15 04:46:49;;;;;;;7.25;1.42;;;33.70;83.60;;;;;;4983783;28;20039;-76
2022/02/15 04:49:17;;;;;;;2.33;0.55;;;33.90;81.70;;;;;;4976276;28;20041;-77
2022/02/15 04:51:45;;;;;;;4.05;0.93;;;33.60;82.70;;;;;;4979553;28;20039;-75
2022/02/15 04:54:13;;;;;;;4.30;0.80;;;33.40;82.30;;;;;;4981394;28;20466;-76
2022/02/15 04:56:40;;;;;;;4.63;0.95;;;32.80;83.30;;;;;;4981101;28;20031;-76
2022/02/15 04:59:07;;;;;;;5.00;0.88;;;32.20;84.30;;;;;;4980282;28;20049;-76
2022/02/15 05:01:35;;;;;;;3.03;0.80;;;31.70;85.40;;;;;;4988725;28;20425;-75
2022/02/15 05:04:02;;;;;;;4.78;0.80;;;31.40;86.60;;;;;;4985165;28;20207;-75
2022/02/15 05:06:29;;;;;;;4.05;1.00;;;31.30;87.20;;;;;;4980069;28;20065;-76
2022/02/15 05:08:57;;;;;;;6.18;1.15;;;31.30;88.00;;;;;;4979054;28;20050;-75
2022/02/15 05:11:24;;;;;;;3.95;0.80;;;31.60;88.40;;;;;;4987899;28;20022;-75
2022/02/15 05:13:51;;;;;;;5.55;1.20;;;32.00;88.90;;;;;;4980934;28;20489;-74
2022/02/15 05:16:19;;;;;;;7.18;1.17;;;32.50;87.10;;;;;;4983505;28;20034;-74
2022/02/15 05:18:47;;;;;;;6.05;1.50;;;32.60;87.80;;;;;;4981660;28;20156;-76
2022/02/15 05:21:14;;;;;;;5.30;0.88;;;32.20;86.70;;;;;;4980656;28;20041;-75
2022/02/15 05:23:42;;;;;;;5.57;0.90;;;31.70;87.60;;;;;;4979444;28;20041;-76
2022/02/15 05:26:10;;;;;;;3.80;0.80;;;31.20;88.60;;;;;;4984543;28;20087;-79
2022/02/15 05:28:37;;;;;;;7.38;1.98;;;30.80;89.50;;;;;;4974939;28;20145;-76
2022/02/15 05:31:04;;;;;;;5.95;0.80;;;30.40;90.10;;;;;;4985345;28;20485;-77
2022/02/15 05:33:31;;;;;;;3.95;0.90;;;30.60;90.10;;;;;;4985241;28;20030;-76
2022/02/15 05:35:59;;;;;;;5.80;1.77;;;31.00;89.80;;;;;;4985544;28;20029;-77
2022/02/15 05:38:27;;;;;;;8.40;1.17;;;31.30;88.80;;;;;;4976222;28;20050;-75
2022/02/15 05:40:55;;;;;;;4.25;1.58;;;31.40;88.30;;;;;;4973802;28;20142;-78
2022/02/15 05:46:07;;;;;;;;;;;31.90;88.80;;;;;;4980691;28;20053;-79
2022/02/15 05:48:34;;;;;;;3.53;1.00;;;31.90;88.30;;;;;;4978498;28;20005;-77
2022/02/15 05:51:02;;;;;;;9.80;1.73;;;31.50;89.00;;;;;;4977856;28;20038;-79
2022/02/15 05:53:31;;;;;;;6.85;0.90;;;31.20;89.60;;;;;;4977523;28;20026;-77
2022/02/15 05:56:01;;;;;;;4.20;1.20;;;31.00;90.00;;;;;;4979991;28;20128;-76
2022/02/15 05:58:30;;;;;;;7.90;2.35;;;30.90;90.20;;;;;;4980899;28;20034;-76
2022/02/15 06:01:01;;;;;;;5.38;1.00;;;30.70;90.20;;;;;;4978335;28;20026;-77
2022/02/15 06:06:14;;;;;;;5.88;1.63;;;30.30;90.60;;;;;;4976013;28;20488;-77
2022/02/15 06:08:41;;;;;;;10.73;1.52;;;29.90;90.80;;;;;;4976431;28;20035;-76
2022/02/15 06:11:09;;;;;;;7.97;2.33;;;29.50;91.40;;;;;;4978882;28;20022;-77
2022/02/15 06:13:36;;;;;;;7.57;2.15;;;29.30;91.50;;;;;;4987114;28;20113;-76
2022/02/15 06:16:05;;;;;;;7.28;1.10;;;29.30;91.50;;;;;;4980428;28;20022;-75
2022/02/15 06:18:32;;;;;;;6.43;1.70;;;29.30;91.50;;;;;;4982297;28;20023;-76
2022/02/15 06:21:00;;;;;;;7.30;1.50;;;29.30;91.50;;;;;;4986018;28;20039;-74
2022/02/15 06:23:27;;;;;;;7.20;1.30;;;29.30;91.50;;;;;;4985079;28;20065;-76
2022/02/15 06:25:54;;;;;;;10.93;1.27;;;29.20;91.30;;;;;;4982435;28;20065;-75
2022/02/15 06:28:21;;;;;;;5.57;1.10;;;29.10;91.40;;;;;;4975717;28;20097;-75
2022/02/15 06:30:49;;;;;;;7.60;1.27;;;29.00;91.50;;;;;;4981169;28;20577;-78
2022/02/15 06:33:16;;;;;;;10.07;1.40;;;28.90;91.60;;;;;;4986041;28;20403;-76
2022/02/15 06:35:44;;;;;;;6.72;1.23;;;28.80;91.70;;;;;;4981812;28;20760;-76
2022/02/15 06:38:11;;;;;;;3.90;1.05;;;28.70;91.80;;;;;;4979803;28;20023;-76
2022/02/15 06:40:38;;;;;;;8.07;2.38;;;28.60;92.00;;;;;;4981653;28;20034;-76
2022/02/15 06:43:06;;;;;;;5.68;1.00;;;28.40;92.00;;;;;;4985517;28;20086;-77
2022/02/15 06:45:33;;;;;;;10.15;1.13;;;28.20;92.40;;;;;;4981835;28;20070;-77
2022/02/15 06:48:01;;;;;;;10.30;1.38;;;28.10;92.60;;;;;;4986840;28;20122;-76
2022/02/15 06:50:28;;;;;;;7.85;1.63;;;28.00;92.60;;;;;;4990613;28;20089;-78
2022/02/15 06:52:55;;;;;;;4.15;0.80;;;28.20;92.60;;;;;;4989051;28;20042;-77
2022/02/15 06:55:23;;;;;;;3.67;0.93;;;28.40;92.30;;;;;;4978626;28;20457;-77
2022/02/15 06:57:50;;;;;;;7.00;1.00;;;28.50;92.10;;;;;;4983734;28;20409;-77
2022/02/15 07:00:18;;;;;;;6.15;1.45;;;28.40;92.00;;;;;;4996055;28;20031;-76
2022/02/15 07:02:45;;;;;;;6.93;1.23;;;28.20;92.00;;;;;;4992344;28;20073;-78
2022/02/15 07:05:12;;;;;;;6.93;0.60;;;28.30;92.10;;;;;;4980879;28;20062;-75
2022/02/15 07:07:40;;;;;;;6.00;1.17;;;28.30;92.00;;;;;;4988896;28;20042;-76
2022/02/15 07:10:09;;;;;;;5.47;0.85;;;28.20;92.20;;;;;;4996551;28;20061;-81
2022/02/15 07:12:36;;;;;;;3.50;1.02;;;28.10;92.30;;;;;;4992635;28;20058;-77
2022/02/15 07:15:03;;;;;;;5.97;0.90;;;28.20;92.40;;;;;;4988818;28;20381;-75
2022/02/15 07:17:36;;;;;;;5.07;0.80;;;28.20;92.60;;;;;;4982552;28;20022;-77
2022/02/15 07:20:06;;;;;;;5.18;1.25;;;28.00;92.80;;;;;;4983757;28;20030;-76
2022/02/15 07:22:34;;;;;;;10.43;1.58;;;27.80;92.90;;;;;;4987132;28;20037;-78
2022/02/15 07:25:01;;;;;;;6.10;1.25;;;27.50;93.00;;;;;;4993883;28;20034;-76
2022/02/15 07:27:30;;;;;;;5.22;1.20;;;27.40;93.00;;;;;;4985439;28;20035;-78
2022/02/15 07:29:57;;;;;;;10.15;2.00;;;27.30;93.10;;;;;;4987218;28;20041;-77
2022/02/15 07:32:24;;;;;;;8.05;1.02;;;27.20;93.30;;;;;;4989451;28;20113;-76
2022/02/15 07:34:53;;;;;;;10.50;1.63;;;27.20;93.40;;;;;;4997954;28;20022;-79
2022/02/15 07:37:21;;;;;;;7.05;0.98;;;27.20;93.50;;;;;;4989479;28;20034;-76
2022/02/15 07:39:48;;;;;;;7.57;1.85;;;27.10;93.40;;;;;;4973761;28;20330;-77
2022/02/15 07:42:16;;;;;;;6.05;1.15;;;27.00;93.50;;;;;;4983947;28;20023;-77
2022/02/15 07:44:43;;;;;;;6.72;1.35;;;26.90;93.50;;;;;;4990489;28;20030;-77
2022/02/15 07:47:11;;;;;;;7.70;0.82;;;26.80;93.70;;;;;;4981573;28;20031;-78
2022/02/15 07:49:38;;;;;;;3.65;1.20;;;26.70;93.60;;;;;;4986045;28;20029;-78
2022/02/15 07:52:06;;;;;;;5.25;1.08;;;26.60;93.90;;;;;;4987945;28;20034;-79
2022/02/15 07:54:34;;;;;;;10.10;1.35;;;26.60;94.00;;;;;;4991260;28;20066;-76
2022/02/15 07:57:01;;;;;;;13.30;2.83;;;26.50;94.20;;;;;;4990477;28;20027;-76
2022/02/15 07:59:28;;;;;;;5.07;0.90;;;26.60;94.20;;;;;;4989956;28;20038;-75
2022/02/15 08:01:56;;;;;;;11.63;1.35;;;26.60;94.10;;;;;;4981641;28;20453;-76
2022/02/15 08:04:23;;;;;;;5.55;1.48;;;26.40;94.30;;;;;;4985008;28;20043;-77
2022/02/15 08:06:53;;;;;;;6.22;0.73;;;26.40;94.20;;;;;;4980517;28;20072;-77
2022/02/15 08:09:22;;;;;;;7.10;2.45;;;26.40;94.30;;;;;;4988630;28;20429;-76
2022/02/15 08:11:55;;;;;;;9.85;1.73;;;26.40;94.40;;;;;;4980643;28;20045;-76
2022/02/15 08:14:23;;;;;;;10.27;1.45;;;26.40;94.50;;;;;;4988930;28;20041;-75
2022/02/15 08:16:53;;;;;;;7.03;1.23;;;26.30;94.70;;;;;;4987536;28;20049;-77
2022/02/15 08:19:26;;;;;;;4.47;0.80;;;26.20;94.80;;;;;;4989447;28;20034;-76
2022/02/15 08:21:56;;;;;;;6.13;1.10;;;26.30;94.90;;;;;;4990439;28;20052;-77
2022/02/15 08:24:26;;;;;;;9.55;1.45;;;26.20;95.00;;;;;;4987040;28;20041;-76
2022/02/15 08:26:53;;;;;;;10.57;1.90;;;26.10;95.40;;;;;;4989315;28;20441;-79
2022/02/15 08:29:21;;;;;;;7.82;1.80;;;26.10;95.70;;;;;;4988141;28;20027;-76
2022/02/15 08:31:48;;;;;;;9.85;1.40;;;26.00;95.80;;;;;;4989283;28;20567;-76
2022/02/15 08:34:16;;;;;;;6.78;1.80;;;25.90;96.00;;;;;;4987223;28;20037;-76
2022/02/15 08:36:43;;;;;;;7.55;1.50;;;25.80;96.40;;;;;;4991990;28;20445;-78
2022/02/15 08:39:11;;;;;;;14.48;2.42;;;25.60;96.60;;;;;;4989227;28;20045;-77
2022/02/15 08:41:39;;;;;;;10.05;2.42;;;25.50;96.90;;;;;;4978187;28;20026;-77
2022/02/15 08:44:06;;;;;;;8.02;1.73;;;25.40;96.90;;;;;;4984744;28;20049;-77
2022/02/15 08:46:35;;;;;;;7.60;1.45;;;25.20;96.90;;;;;;4990211;28;20489;-78
2022/02/15 08:49:02;;;;;;;6.43;1.10;;;25.10;97.00;;;;;;4987603;28;20489;-77
2022/02/15 08:51:30;;;;;;;13.23;2.30;;;24.90;97.40;;;;;;4991282;28;20041;-78
2022/02/15 08:53:57;;;;;;;9.45;1.65;;;24.90;97.70;;;;;;4976110;28;20043;-80
2022/02/15 08:56:25;;;;;;;4.93;1.85;;;24.70;97.60;;;;;;4974927;28;20054;-79
2022/02/15 08:58:53;;;;;;;9.25;1.50;;;24.60;97.80;;;;;;4989486;28;20156;-80
2022/02/15 09:01:20;;;;;;;9.30;1.15;;;24.50;97.90;;;;;;4993221;28;20128;-80
2022/02/15 09:03:48;;;;;;;10.55;1.30;;;24.40;98.00;;;;;;4960713;28;20057;-80
2022/02/15 09:06:17;;;;;;;7.35;2.03;;;24.50;98.20;;;;;;4975402;28;20046;-80
2022/02/15 09:08:44;;;;;;;13.43;1.83;;;24.40;98.20;;;;;;4990183;28;20054;-80
2022/02/15 09:11:12;;;;;;;13.50;1.85;;;24.50;98.10;;;;;;4993555;28;20531;-82
2022/02/15 09:13:39;;;;;;;8.63;1.92;;;24.50;98.10;;;;;;4985725;28;20387;-80
2022/02/15 09:16:07;;;;;;;11.10;1.80;;;24.60;98.10;;;;;;4966519;28;20058;-82
2022/02/15 09:18:34;;;;;;;7.80;1.98;;;24.50;98.10;;;;;;4984502;28;20026;-80
2022/02/15 09:21:02;;;;;;;8.07;1.75;;;24.60;98.10;;;;;;4986183;28;20030;-82
2022/02/15 09:23:29;;;;;;;5.88;0.90;;;24.50;98.10;;;;;;4986991;28;20525;-80
2022/02/15 09:25:59;;;;;;;11.57;1.90;;;24.70;98.00;;;;;;4982473;28;20098;-83
2022/02/15 09:28:27;;;;;;;5.38;1.00;;;24.70;98.00;;;;;;4989522;28;20335;-81
2022/02/15 09:30:54;;;;;;;6.47;1.73;;;24.60;98.10;;;;;;4979606;28;20082;-80
2022/02/15 09:33:23;;;;;;;8.52;1.00;;;24.50;98.20;;;;;;4989163;28;20057;-79
2022/02/15 09:35:50;;;;;;;7.32;1.73;;;24.50;98.30;;;;;;4986967;28;20451;-78
2022/02/15 09:38:20;;;;;;;12.20;2.03;;;24.50;98.30;;;;;;4978690;28;20450;-81
2022/02/15 09:40:50;;;;;;;4.70;0.80;;;24.40;98.50;;;;;;4973109;28;20035;-81
2022/02/15 09:43:18;;;;;;;6.50;1.05;;;24.40;98.50;;;;;;4980556;28;20033;-82
2022/02/15 09:45:50;;;;;;;5.63;1.60;;;24.40;98.40;;;;;;4980255;28;20093;-82
2022/02/15 09:48:24;;;;;;;5.43;1.88;;;24.50;98.50;;;;;;4966667;28;20118;-79
2022/02/15 09:50:54;;;;;;;8.65;1.63;;;24.40;98.60;;;;;;4986388;28;20046;-82
2022/02/15 09:53:22;;;;;;;7.25;1.25;;;24.40;98.70;;;;;;4988611;28;20050;-81
2022/02/15 09:55:49;;;;;;;9.52;2.67;;;24.40;98.60;;;;;;4988134;28;20058;-79
2022/02/15 09:58:17;;;;;;;8.90;1.27;;;24.50;98.70;;;;;;5001302;28;20082;-79
2022/02/15 10:00:46;;;;;;;7.32;1.98;;;24.40;98.60;;;;;;4992831;28;20129;-82
2022/02/15 10:03:15;;;;;;;7.75;1.35;;;24.40;98.60;;;;;;4989651;28;20169;-80
2022/02/15 10:05:48;;;;;;;4.95;1.42;;;24.40;98.70;;;;;;4969244;28;20105;-81
2022/02/15 10:08:25;;;;;;;7.55;1.13;;;24.30;98.70;;;;;;4985778;28;20031;-79
2022/02/15 10:10:53;;;;;;;10.13;1.65;;;24.10;98.60;;;;;;4983528;28;20030;-82
2022/02/15 10:13:20;;;;;;;8.40;1.83;;;24.10;99.10;;;;;;4984866;28;20146;-82
2022/02/15 10:15:51;;;;;;;5.50;1.08;;;24.10;98.90;;;;;;4975795;28;20070;-80
2022/02/15 10:18:25;;;;;;;12.00;2.17;;;24.00;98.80;;;;;;4990137;28;20019;-77
2022/02/15 10:20:57;;;;;;;9.93;1.90;;;23.90;99.00;;;;;;4990089;28;20380;-81
2022/02/15 10:23:29;;;;;;;9.93;2.42;;;23.90;99.10;;;;;;4987074;28;20084;-81
2022/02/15 10:25:57;;;;;;;7.85;1.35;;;23.90;99.20;;;;;;4985633;28;20588;-78
2022/02/15 10:28:28;;;;;;;14.32;1.17;;;23.80;99.10;;;;;;4987990;28;20037;-77
2022/02/15 10:31:01;;;;;;;9.85;1.05;;;23.80;99.10;;;;;;4987488;28;20034;-78
2022/02/15 10:33:34;;;;;;;5.80;0.80;;;23.70;99.30;;;;;;4981412;28;20460;-77
2022/02/15 10:36:10;;;;;;;7.55;1.45;;;23.60;99.70;;;;;;4986246;28;20113;-75
2022/02/15 10:38:40;;;;;;;7.95;2.03;;;23.70;99.50;;;;;;4989249;28;20031;-76
2022/02/15 10:41:09;;;;;;;8.30;1.83;;;23.70;99.60;;;;;;4980395;28;20026;-77
2022/02/15 10:43:50;;;;;;;4.28;1.42;;;23.70;99.50;;;;;;4979842;28;20443;-76
2022/02/15 10:46:30;;;;;;;9.07;1.30;;;23.60;99.70;;;;;;4983264;28;20045;-76
2022/02/15 10:49:00;;;;;;;7.78;1.13;;;23.60;99.70;;;;;;4986325;28;20061;-78
2022/02/15 10:51:28;;;;;;;6.60;1.40;;;23.60;99.50;;;;;;4974938;28;20113;-77
2022/02/15 10:53:55;;;;;;;7.53;1.27;;;23.50;99.90;;;;;;4990553;28;20105;-76
2022/02/15 10:56:23;;;;;;;8.50;1.90;;;23.40;99.90;;;;;;4986543;28;20514;-76
2022/02/15 10:58:53;;;;;;;9.50;1.52;;;23.30;99.90;;;;;;4978676;28;20037;-76
2022/02/15 11:01:21;;;;;;;5.43;1.20;;;23.20;99.90;;;;;;4981940;28;20027;-76
2022/02/15 11:03:51;;;;;;;12.43;1.88;;;23.20;99.90;;;;;;4981734;28;20147;-78
2022/02/15 11:06:19;;;;;;;12.18;1.75;;;23.10;99.90;;;;;;4985881;28;20085;-77
2022/02/15 11:08:50;;;;;;;12.45;2.55;;;23.10;99.90;;;;;;4980491;28;20027;-77
2022/02/15 11:11:26;;;;;;;6.85;1.10;;;23.10;99.90;;;;;;4982117;28;20651;-76
2022/02/15 11:13:56;;;;;;;;;;;23.00;99.90;;;;;;4984391;28;20046;-77
2022/02/15 11:16:25;;;;;;;9.52;1.67;;;22.90;99.90;;;;;;4988775;28;19924;-78
2022/02/15 11:18:53;;;;;;;5.95;1.55;;;22.90;99.90;;;;;;4987933;28;20122;-75
2022/02/15 11:21:25;;;;;;;10.88;2.00;;;22.80;99.90;;;;;;4977965;28;20038;-78
2022/02/15 11:24:07;;;;;;;7.22;1.30;;;22.80;99.90;;;;;;4980443;28;20034;-77
2022/02/15 11:26:39;;;;;;;14.68;1.85;;;22.70;99.90;;;;;;4979511;28;20054;-77
2022/02/15 11:29:08;;;;;;;12.90;2.08;;;22.80;99.90;;;;;;4984739;28;20031;-77
2022/02/15 11:31:42;;;;;;;10.35;2.45;;;22.70;99.90;;;;;;4985284;28;20058;-78
2022/02/15 11:34:11;;;;;;;5.05;1.25;;;22.60;99.90;;;;;;4986865;28;20022;-76
2022/02/15 11:36:53;;;;;;;11.02;1.33;;;22.60;99.90;;;;;;4983374;28;20170;-80
2022/02/15 11:39:25;;;;;;;7.03;1.25;;;22.60;99.90;;;;;;4987660;28;20027;-81
2022/02/15 11:41:54;;;;;;;8.27;1.30;;;22.60;99.90;;;;;;4986546;28;20443;-80
2022/02/15 11:44:37;;;;;;;9.63;1.73;;;22.50;99.90;;;;;;4976549;28;20152;-81
2022/02/15 11:47:27;;;;;;;6.75;1.20;;;22.50;99.90;;;;;;4977120;28;20066;-78
2022/02/15 11:50:00;;;;;;;7.93;0.98;;;22.50;99.90;;;;;;4984528;28;20501;-78
2022/02/15 11:52:29;;;;;;;13.75;2.05;;;22.40;99.90;;;;;;4982413;28;20026;-77
2022/02/15 11:55:17;;;;;;;10.00;1.00;;;22.30;99.90;;;;;;4986533;28;20047;-78
2022/02/15 11:57:47;;;;;;;4.43;0.82;;;22.30;99.90;;;;;;4979000;28;20050;-80
2022/02/15 12:00:15;;;;;;;11.45;1.05;;;22.30;99.90;;;;;;4976670;28;20042;-79
2022/02/15 12:02:56;;;;;;;7.50;0.82;;;22.30;99.90;;;;;;4978155;28;20034;-76
2022/02/15 12:05:29;;;;;;;8.57;1.50;;;22.20;99.90;;;;;;4985165;28;20117;-77
2022/02/15 12:07:57;;;;;;;7.22;1.38;;;22.20;99.90;;;;;;4978364;28;20034;-75
2022/02/15 12:10:33;;;;;;;5.25;1.27;;;22.10;99.90;;;;;;4978911;28;20080;-77
2022/02/15 12:13:01;;;;;;;6.35;1.48;;;22.10;99.90;;;;;;4980479;28;20037;-76
2022/02/15 12:15:31;;;;;;;5.78;1.60;;;22.10;99.90;;;;;;4982153;28;20331;-77
2022/02/15 12:17:58;;;;;;;8.95;1.25;;;22.10;99.90;;;;;;4978347;28;20045;-74
2022/02/15 12:20:27;;;;;;;7.50;0.93;;;22.00;99.90;;;;;;4982942;28;20034;-75
2022/02/15 12:22:55;;;;;;;5.95;0.98;;;22.10;99.90;;;;;;4983513;28;20080;-76
2022/02/15 12:25:25;;;;;;;7.20;0.93;;;22.00;99.90;;;;;;4980803;28;20039;-76
2022/02/15 12:27:52;;;;;;;5.90;1.10;;;22.00;99.90;;;;;;4979741;28;20113;-76
2022/02/15 12:30:20;;;;;;;11.88;1.52;;;22.00;99.90;;;;;;4981506;28;20030;-77
2022/02/15 12:32:49;;;;;;;3.60;1.15;;;22.00;99.90;;;;;;4978382;28;20493;-76
2022/02/15 12:35:29;;;;;;;6.00;1.02;;;21.90;99.90;;;;;;4983835;28;20035;-77
2022/02/15 12:37:59;;;;;;;3.55;0.88;;;21.90;99.90;;;;;;4985588;28;20054;-77
2022/02/15 12:40:28;;;;;;;8.07;1.55;;;21.80;99.90;;;;;;4987723;28;20026;-76
2022/02/15 12:42:55;;;;;;;5.85;1.70;;;21.80;99.90;;;;;;4982846;28;20376;-77
2022/02/15 12:45:24;;;;;;;5.90;1.17;;;21.70;99.90;;;;;;4976687;28;20030;-76
2022/02/15 12:47:51;;;;;;;9.23;1.30;;;21.70;99.90;;;;;;4979465;28;20454;-77
2022/02/15 12:50:21;;;;;;;6.38;1.13;;;21.60;99.90;;;;;;4975852;28;20030;-76
2022/02/15 12:52:48;;;;;;;7.68;0.85;;;21.60;99.90;;;;;;4985347;28;20193;-77
2022/02/15 12:55:16;;;;;;;5.40;0.77;;;21.60;99.90;;;;;;4984835;28;20072;-76
2022/02/15 12:57:54;;;;;;;5.55;0.98;;;21.60;99.90;;;;;;4979170;28;20027;-77
2022/02/15 13:00:25;;;;;;;9.73;1.77;;;21.60;99.90;;;;;;4982681;28;20030;-77
2022/02/15 13:02:54;;;;;;;6.30;0.93;;;21.60;99.90;;;;;;4978045;28;20023;-77
2022/02/15 13:05:35;;;;;;;10.98;1.42;;;21.60;99.90;;;;;;4981546;28;20405;-74